createdAt,value
2022-10-18T03:23:56.143Z,99638.28
2022-10-18T03:27:06.040Z,99635.28
2022-10-18T03:30:16.004Z,99638.97
2022-10-18T03:33:25.924Z,99652.75
2022-10-18T03:36:40.676Z,99641.25
2022-10-18T03:39:50.597Z,99631.81
2022-10-18T03:43:00.481Z,99615.56
2022-10-18T03:46:10.441Z,99630.81
2022-10-18T03:49:20.384Z,99612.03
2022-10-18T03:56:30.591Z,99613.44
2022-10-18T03:59:40.524Z,99629.88
2022-10-18T04:02:53.338Z,99632.59
2022-10-18T04:06:05.833Z,99623.81
2022-10-18T04:09:19.502Z,99625.41
2022-10-18T04:12:29.758Z,99627.22
2022-10-18T04:15:42.562Z,99613.25
2022-10-18T04:18:54.566Z,99623.63
2022-10-18T04:22:04.487Z,99619.44
2022-10-18T04:29:17.186Z,99612.84
2022-10-18T04:32:29.418Z,99605.88
2022-10-18T04:35:39.320Z,99612.84
2022-10-18T04:38:49.199Z,99618.91
2022-10-18T04:42:00.417Z,99618.03
2022-10-18T04:45:13.398Z,99619.81
2022-10-18T04:48:23.526Z,99618.84
2022-10-18T04:51:40.870Z,99615.13
2022-10-18T04:54:50.775Z,99619.22
2022-10-18T05:38:58.630Z,99630.31
2022-10-18T05:42:12.075Z,99634.88
2022-10-18T05:45:22.041Z,99633.97
2022-10-18T05:48:32.298Z,99633.78
2022-10-18T05:51:42.260Z,99639.97
2022-10-18T05:55:15.083Z,99650.63
2022-10-18T05:58:27.893Z,99641.16
2022-10-18T06:01:42.259Z,99632.06
2022-10-18T06:04:52.169Z,99622.53
2022-10-18T06:08:07.937Z,99631.97
2022-10-18T06:11:22.400Z,99640.56
2022-10-18T06:14:35.183Z,99650.72
2022-10-18T06:17:45.089Z,99652.50
2022-10-18T08:50:26.977Z,99719.81
2022-10-18T08:53:51.579Z,99710.06
2022-10-18T08:57:08.103Z,99723.34
2022-10-18T09:00:21.436Z,99739.13
2022-10-18T09:03:51.204Z,99725.56
2022-10-18T09:07:19.289Z,99727.69
2022-10-18T09:10:41.088Z,99731.00
2022-10-18T09:14:08.036Z,99725.00
2022-10-18T09:17:27.754Z,99729.84
2022-10-18T09:20:50.887Z,99724.75
2022-10-18T09:24:09.236Z,99732.19
2022-10-18T09:27:34.901Z,99735.63
2022-10-18T09:30:58.661Z,99736.13
2022-10-18T09:34:16.389Z,99747.44
2022-10-18T09:37:30.391Z,99747.66
2022-10-18T09:40:51.339Z,99747.66
2022-10-18T09:44:06.799Z,99749.31
2022-10-18T09:47:24.814Z,99747.56
2022-10-18T09:50:40.113Z,99754.91
2022-10-18T09:54:07.147Z,99758.88
2022-10-18T09:57:28.569Z,99753.41
2022-10-18T10:00:48.746Z,99757.13
2022-10-18T10:04:01.092Z,99763.00
2022-10-18T10:07:14.872Z,99762.19
2022-10-18T10:10:26.723Z,99758.34
2022-10-18T10:13:40.226Z,99757.25
2022-10-18T10:16:53.759Z,99762.56
2022-10-18T10:20:16.762Z,99762.84
2022-10-18T10:23:30.946Z,99760.72
2022-10-18T10:26:41.383Z,99768.31
2022-10-18T10:29:57.778Z,99773.31
2022-10-18T10:33:33.792Z,99775.00
2022-10-18T10:36:49.027Z,99783.59
2022-10-18T10:40:19.860Z,99787.81
2022-10-18T10:43:38.779Z,99793.38
2022-10-18T10:46:52.563Z,99786.09
2022-10-18T10:50:11.852Z,99793.22
2022-10-18T10:53:29.313Z,99796.34
2022-10-18T10:56:55.529Z,99795.47
2022-10-18T11:00:06.154Z,99798.44
2022-10-18T11:03:34.990Z,99802.69
2022-10-18T11:06:50.252Z,99805.38
2022-10-18T11:10:04.722Z,99796.41
2022-10-18T11:13:34.039Z,99787.50
2022-10-18T11:16:52.616Z,99785.06
2022-10-18T11:20:23.292Z,99779.38
2022-10-18T11:23:34.776Z,99770.16
2022-10-18T11:26:53.752Z,99767.63
2022-10-18T11:30:18.111Z,99763.88
2022-10-18T11:34:07.148Z,99773.88
2022-10-18T11:37:47.917Z,99780.88
2022-10-18T11:41:12.545Z,99767.59
2022-10-18T11:44:54.919Z,99768.22
2022-10-18T11:48:23.441Z,99774.88
2022-10-18T11:52:06.879Z,99779.56
2022-10-18T11:55:34.941Z,99776.56
2022-10-18T11:59:01.129Z,99788.13
2022-10-18T12:02:32.386Z,99771.75
2022-10-18T12:05:45.744Z,99771.25
2022-10-18T12:08:59.625Z,99765.34
2022-10-18T12:12:21.161Z,99769.97
2022-10-18T12:15:34.920Z,99773.91
2022-10-18T12:22:15.796Z,99762.50
2022-10-18T12:25:26.378Z,99756.72
2022-10-18T12:28:48.825Z,99754.47
2022-10-18T12:32:07.301Z,99754.34
2022-10-18T12:35:20.464Z,99756.41
2022-10-18T12:38:32.765Z,99756.94
2022-10-18T12:41:42.800Z,99761.88
2022-10-18T12:45:05.044Z,99752.09
2022-10-18T12:48:30.579Z,99757.03
2022-10-18T12:51:51.787Z,99751.34
2022-10-18T12:55:13.908Z,99747.09
2022-10-18T12:58:30.839Z,99749.88
2022-10-18T13:02:10.626Z,99750.84
2022-10-18T13:05:56.306Z,99751.34
2022-10-18T13:09:21.427Z,99740.16
2022-10-18T13:12:49.952Z,99737.16
2022-10-18T13:16:11.695Z,99738.59
2022-10-18T13:19:32.031Z,99731.94
2022-10-18T13:23:02.600Z,99747.59
2022-10-18T13:26:25.172Z,99737.81
2022-10-18T13:29:51.618Z,99747.25
2022-10-18T13:33:22.191Z,99747.75
2022-10-18T13:36:34.302Z,99742.06
2022-10-18T13:39:45.865Z,99755.09
2022-10-18T13:42:58.606Z,99749.66
2022-10-18T13:46:08.612Z,99757.88
2022-10-18T13:49:32.657Z,99761.47
2022-10-18T13:53:03.192Z,99764.47
2022-10-18T13:56:33.464Z,99764.81
2022-10-18T14:00:05.204Z,99767.66
2022-10-18T14:07:11.388Z,99776.19
2022-10-18T14:10:43.437Z,99775.88
2022-10-18T14:14:07.585Z,99785.97
2022-10-18T14:17:28.230Z,99789.63
2022-10-18T14:21:12.231Z,99798.78
2022-10-18T14:24:24.429Z,99798.31
2022-10-18T14:27:35.239Z,99798.09
2022-10-18T14:30:58.033Z,99800.47
2022-10-18T14:34:15.620Z,99802.41
2022-10-18T14:37:29.091Z,99800.31
2022-10-18T14:40:43.243Z,99794.19
2022-10-18T14:43:54.983Z,99788.19
2022-10-18T14:47:16.148Z,99791.78
2022-10-18T14:50:30.733Z,99785.94
2022-10-18T14:53:43.809Z,99786.13
2022-10-18T14:56:54.193Z,99787.91
2022-10-18T15:00:08.742Z,99787.13
2022-10-18T15:03:28.358Z,99796.53
2022-10-18T15:06:43.698Z,99792.78
2022-10-18T15:09:54.640Z,99794.72
2022-10-18T15:13:10.636Z,99786.25
2022-10-18T15:16:24.491Z,99792.50
2022-10-18T15:19:39.981Z,99803.81
2022-10-18T15:22:50.081Z,99797.81
2022-10-18T15:26:04.052Z,99790.72
2022-10-18T15:29:18.678Z,99789.13
2022-10-18T15:32:34.298Z,99790.72
2022-10-18T15:35:48.786Z,99794.13
2022-10-18T15:39:08.925Z,99784.63
2022-10-18T15:42:40.242Z,99787.50
2022-10-18T15:45:59.973Z,99792.09
2022-10-18T15:49:39.897Z,99784.47
2022-10-18T15:52:53.659Z,99786.09
2022-10-18T15:56:11.060Z,99784.31
2022-10-18T15:59:24.735Z,99783.91
2022-10-18T16:02:35.279Z,99795.19
2022-10-18T16:05:48.100Z,99789.91
2022-10-18T16:08:59.580Z,99783.75
2022-10-18T16:12:12.339Z,99779.94
2022-10-18T16:15:22.296Z,99788.38
2022-10-18T16:18:36.597Z,99785.28
2022-10-18T16:21:46.514Z,99785.41
2022-10-18T16:28:26.630Z,99793.53
2022-10-18T16:31:39.211Z,99802.81
2022-10-18T16:34:52.103Z,99799.94
2022-10-18T16:38:07.531Z,99812.72
2022-10-18T16:41:22.133Z,99808.13
2022-10-18T16:44:36.969Z,99817.44
2022-10-18T16:47:47.287Z,99819.81
2022-10-18T16:51:00.648Z,99826.13
2022-10-18T16:54:10.546Z,99828.22
2022-10-18T16:57:21.786Z,99831.41
2022-10-18T17:00:31.979Z,99836.28
2022-10-18T17:03:41.933Z,99835.00
2022-10-18T17:06:59.626Z,99833.78
2022-10-18T17:10:12.702Z,99832.47
2022-10-18T17:13:25.783Z,99842.88
2022-10-18T17:16:38.846Z,99843.75
2022-10-18T17:19:49.117Z,99852.13
2022-10-18T17:22:59.019Z,99847.53
2022-10-18T17:26:27.663Z,99856.91
2022-10-18T17:29:43.299Z,99859.50
2022-10-18T17:32:55.372Z,99855.59
2022-10-18T17:36:05.775Z,99854.47
2022-10-18T17:39:16.211Z,99861.91
2022-10-18T17:42:29.303Z,99857.72
2022-10-18T17:45:48.043Z,99857.97
2022-10-18T17:49:00.094Z,99859.34
2022-10-18T17:52:16.542Z,99854.75
2022-10-18T17:55:29.756Z,99866.69
2022-10-18T17:58:42.064Z,99877.63
2022-10-18T18:01:54.073Z,99874.63
2022-10-18T18:05:04.816Z,99873.38
2022-10-18T18:08:15.096Z,99870.97
2022-10-18T18:11:26.366Z,99875.69
2022-10-18T18:14:36.672Z,99868.28
2022-10-18T18:17:56.698Z,99878.44
2022-10-18T18:21:07.324Z,99878.22
2022-10-18T18:24:17.783Z,99881.13
2022-10-18T18:27:27.704Z,99878.91
2022-10-18T18:30:40.906Z,99881.63
2022-10-18T18:33:54.811Z,99880.59
2022-10-18T18:37:05.001Z,99888.38
2022-10-18T18:40:14.912Z,99883.41
2022-10-18T18:43:27.581Z,99883.19
2022-10-18T18:46:38.760Z,99878.91
2022-10-18T18:49:52.912Z,99872.84
2022-10-18T18:53:03.028Z,99870.47
2022-10-18T18:56:15.395Z,99870.59
2022-10-18T18:59:25.584Z,99870.13
2022-10-18T19:02:35.486Z,99868.66
2022-10-18T19:05:49.194Z,99870.56
2022-10-18T19:09:03.026Z,99875.06
2022-10-18T19:12:15.301Z,99869.41
2022-10-18T19:15:28.112Z,99872.09
2022-10-18T19:18:45.198Z,99877.47
2022-10-18T19:21:58.392Z,99881.75
2022-10-18T19:25:13.763Z,99882.78
2022-10-18T19:28:23.857Z,99879.03
2022-10-18T19:31:35.051Z,99882.28
2022-10-18T19:34:45.130Z,99889.81
2022-10-18T19:37:56.348Z,99889.56
2022-10-18T19:44:13.657Z,99891.44
2022-10-18T19:47:26.442Z,99887.63
2022-10-18T19:50:46.303Z,99892.16
2022-10-18T19:53:59.139Z,99892.84
2022-10-18T19:57:09.458Z,99887.91
2022-10-18T20:00:19.884Z,99888.78
2022-10-18T20:03:33.947Z,99888.75
2022-10-18T20:06:44.411Z,99887.25
2022-10-18T20:10:04.348Z,99904.63
2022-10-18T20:13:14.484Z,99901.41
